Skip Navigation Links
NOAA logo - Click to go to the NOAA homepage
NOAA's National Weather Service
Alaska Aviation Weather Unit
  NWS logo - Click to go to the NWS homepage
Left Navbar Graphic     17 AKDT = 01 GMT

   
NOAA is celebrating 200 years of science, service, and stewardship. Visit the NOAA 200th celebration Web site to learn more.
USA.gov is the U.S. Government's official Web portal to all Federal, state and local government Web resources and services.
Facebook
NWS on Facebook

Important Change Regarding the AAWU Web Presence

 

Over the last several months, the AAWU has been working to navigate its webpages to a nationally supported server. Security, as well as other needs, have necessitated the change.  In the process, we have made an effort to enhance the functionality of our website, as well as some of our products. As of June 27, 2017, aawu.arh.noaa.gov will be discontinued. The new AAWU web address is weather.gov/aawu. It is now live and will run in-parallel with the old site until it is discontinued. Please send any feedback or questions regarding the new webpages to nws.ar.aawu.webauthors@noaa.gov.  Thank you for your patience during this time of transition.
AAWU Home :: Display TAF Add Bookmark
TAF CYFS 252338Z 2600/2612 17010KT P6SM SCT060 BKN100 TEMPO 2600/2612
     P6SM -SHRA BKN060 OVC100 PROB40 2602/2612 VRB15G25KT 4SM TSRA
     OVC060CB
    RMK NXT FCST BY 260600Z=

METAR CYFS 251900Z VRB05G15KT 15SM FEW130 BKN210 25/08 A2986 RMK AC2CI4 SLP114 DENSITY ALT 2000FT= METAR CYFS 252000Z 13007G16KT 090V170 15SM SCT150 BKN210 26/08 A2983 RMK AC3CI4 SLP105 DENSITY ALT 2100FT= METAR CYFS 252100Z 16007KT 110V180 15SM FEW050 BKN120 OVC210 28/09 A2980 RMK CU2AC3CI3 SLP097 DENSITY ALT 2300FT= METAR CYFS 252200Z 15009G17KT 120V190 15SM SCT055 BKN120 BKN210 28/08 A2977 RMK CU3AC2CI2 SLP086 DENSITY ALT 2400FT= METAR CYFS 252300Z 17010G20KT 120V190 15SM SCT060 BKN100 28/08 A2975 RMK CU4AC3 SLP078 DENSITY ALT 2400FT= METAR CYFS 260000Z 18015G21KT 15SM SCT060 BKN160 BKN210 28/08 A2974 RMK CU3AC2CI2 SLP076 DENSITY ALT 2400FT= METAR CYFS 260100Z 14009G17KT 110V210 15SM SCT060 SCT090 BKN210 28/07 A2972 RMK CU3AC1CI2 SLP067 DENSITY ALT 2500FT=
 Alaska TAF Map

NOAA's National Weather Service
Alaska Aviation Weather Unit
6930 Sand Lake Road
Anchorage, AK 99502-1845
Disclaimer
Credits
Glossary
Privacy Policy
About Us
Career Opportunities
Contact AAWU Internet Services Site last modified: April, 17th 2012